createdAt,value
2019-01-21T00:01:16.327Z,17.98
2019-01-21T00:03:44.606Z,17.02
2019-01-21T00:06:12.965Z,17.45
2019-01-21T00:08:40.956Z,17.40
2019-01-21T00:11:09.532Z,17.27
2019-01-21T00:13:37.510Z,17.42
2019-01-21T00:16:05.753Z,17.00
2019-01-21T00:18:34.057Z,17.73
2019-01-21T00:21:02.351Z,17.62
2019-01-21T00:23:30.921Z,18.27
2019-01-21T00:25:59.377Z,19.73
2019-01-21T00:28:27.376Z,19.80
2019-01-21T00:30:55.650Z,20.35
2019-01-21T00:33:23.660Z,19.70
2019-01-21T00:35:51.972Z,20.43
2019-01-21T00:38:19.949Z,20.10
2019-01-21T00:40:47.883Z,20.57
2019-01-21T00:43:16.114Z,20.60
2019-01-21T00:45:44.105Z,19.52
2019-01-21T00:48:12.365Z,17.80
2019-01-21T00:50:40.741Z,17.10
2019-01-21T00:53:08.709Z,17.75
2019-01-21T00:55:36.709Z,16.93
2019-01-21T00:58:04.680Z,15.88
2019-01-21T01:00:32.652Z,15.98
2019-01-21T01:03:01.281Z,14.53
2019-01-21T01:05:29.299Z,14.73
2019-01-21T01:07:57.537Z,14.70
2019-01-21T01:10:25.826Z,14.60
2019-01-21T01:12:53.819Z,14.45
2019-01-21T01:15:22.056Z,14.43
2019-01-21T01:17:50.040Z,15.53
2019-01-21T01:20:19.198Z,15.13
2019-01-21T01:22:47.175Z,15.10
2019-01-21T01:25:15.167Z,16.10
2019-01-21T01:27:43.457Z,15.73
2019-01-21T01:30:12.817Z,16.70
2019-01-21T01:32:40.806Z,16.55
2019-01-21T01:35:09.930Z,17.57
2019-01-21T01:37:37.880Z,17.80
2019-01-21T01:40:07.018Z,18.55
2019-01-21T01:42:35.019Z,17.12
2019-01-21T01:45:03.180Z,17.32
2019-01-21T01:47:31.407Z,18.17
2019-01-21T01:49:59.992Z,18.10
2019-01-21T01:52:27.969Z,18.45
2019-01-21T01:54:56.326Z,18.62
2019-01-21T01:57:25.143Z,17.87
2019-01-21T01:59:53.136Z,17.23
2019-01-21T02:02:21.832Z,17.40
2019-01-21T02:04:50.374Z,17.27
2019-01-21T02:07:18.292Z,16.93
2019-01-21T02:09:46.254Z,18.95
2019-01-21T02:12:14.898Z,18.45
2019-01-21T02:14:43.137Z,17.77
2019-01-21T02:17:11.103Z,18.07
2019-01-21T02:19:39.941Z,17.65
2019-01-21T02:22:08.384Z,18.30
2019-01-21T02:24:37.200Z,19.00
2019-01-21T02:27:07.471Z,18.23
2019-01-21T02:29:57.308Z,18.17
2019-01-21T02:32:43.557Z,18.57
2019-01-21T02:35:17.285Z,19.25
2019-01-21T02:38:10.424Z,19.30
2019-01-21T02:40:57.473Z,19.00
2019-01-21T02:43:37.951Z,18.77
2019-01-21T02:46:28.642Z,19.10
2019-01-21T02:49:11.529Z,19.00
2019-01-21T02:51:53.960Z,19.52
2019-01-21T02:54:26.259Z,19.82
2019-01-21T02:57:02.280Z,19.15
2019-01-21T02:59:33.169Z,18.00
2019-01-21T03:02:20.237Z,18.42
2019-01-21T03:05:04.013Z,18.92
2019-01-21T03:07:42.630Z,19.60
2019-01-21T03:10:14.891Z,19.07
2019-01-21T03:13:05.197Z,18.73
2019-01-21T03:15:58.264Z,19.17
2019-01-21T03:18:50.822Z,18.80
2019-01-21T03:21:47.428Z,19.62
2019-01-21T03:24:33.483Z,18.75
2019-01-21T03:27:08.554Z,19.87
2019-01-21T03:29:45.598Z,19.50
2019-01-21T03:32:31.699Z,20.43
2019-01-21T03:35:25.439Z,19.67
2019-01-21T03:38:30.941Z,20.80
2019-01-21T03:41:01.920Z,21.10
2019-01-21T03:43:55.148Z,20.80
2019-01-21T03:46:51.913Z,21.60
2019-01-21T03:49:30.121Z,20.57
2019-01-21T03:52:16.002Z,21.02
2019-01-21T03:54:47.194Z,21.70
2019-01-21T03:57:19.650Z,21.00
2019-01-21T03:59:54.212Z,19.83
2019-01-21T04:02:40.233Z,20.08
2019-01-21T04:05:20.572Z,20.90
2019-01-21T04:08:19.690Z,21.90
2019-01-21T04:11:06.766Z,19.07
2019-01-21T04:14:06.405Z,27.17
2019-01-21T04:16:42.313Z,23.73
2019-01-21T04:19:13.323Z,20.48
2019-01-21T04:22:16.127Z,18.90
2019-01-21T04:25:02.006Z,19.15
2019-01-21T04:28:04.107Z,19.87
2019-01-21T04:30:54.685Z,19.12
2019-01-21T04:33:45.035Z,20.62
2019-01-21T04:36:50.637Z,21.30
2019-01-21T04:39:22.696Z,21.60
2019-01-21T04:41:55.857Z,22.85
2019-01-21T04:44:31.386Z,23.07
2019-01-21T04:47:27.685Z,24.07
2019-01-21T04:50:13.469Z,23.15
2019-01-21T04:53:03.465Z,22.73
2019-01-21T04:55:53.413Z,23.70
2019-01-21T04:58:43.821Z,24.77
2019-01-21T05:01:26.917Z,21.95
2019-01-21T05:04:28.989Z,22.70
2019-01-21T05:07:14.734Z,23.10
2019-01-21T05:09:47.213Z,22.73
2019-01-21T05:12:20.194Z,23.42
2019-01-21T05:15:07.595Z,23.45
2019-01-21T05:17:52.092Z,23.95
2019-01-21T05:20:35.471Z,24.50
2019-01-21T05:23:14.906Z,25.20
2019-01-21T05:25:46.356Z,24.63
2019-01-21T05:28:22.022Z,25.10
2019-01-21T05:31:14.933Z,25.35
2019-01-21T05:33:51.844Z,23.45
2019-01-21T05:36:45.630Z,24.70
2019-01-21T05:39:18.924Z,24.87
2019-01-21T05:42:24.349Z,24.92
2019-01-21T05:44:57.833Z,25.82
2019-01-21T05:47:43.823Z,25.60
2019-01-21T05:50:24.884Z,25.25
2019-01-21T05:53:11.052Z,27.13
2019-01-21T05:55:54.238Z,26.42
2019-01-21T05:58:44.142Z,26.25
2019-01-21T06:01:30.136Z,26.75
2019-01-21T06:04:17.542Z,26.90
2019-01-21T06:07:22.815Z,26.70
2019-01-21T06:10:00.688Z,27.90
2019-01-21T06:12:47.742Z,30.08
2019-01-21T06:15:40.999Z,27.90
2019-01-21T06:18:26.696Z,28.80
2019-01-21T06:21:02.516Z,27.80
2019-01-21T06:23:49.924Z,28.17
2019-01-21T06:26:39.741Z,28.20
2019-01-21T06:29:29.821Z,30.20
2019-01-21T06:32:11.636Z,29.23
2019-01-21T06:35:10.842Z,29.00
2019-01-21T06:37:57.897Z,28.12
2019-01-21T06:40:44.686Z,28.00
2019-01-21T06:43:34.818Z,29.10
2019-01-21T06:46:08.724Z,28.35
2019-01-21T06:49:07.891Z,29.32
2019-01-21T06:51:53.909Z,29.55
2019-01-21T06:54:49.625Z,27.32
2019-01-21T06:57:36.990Z,27.35
2019-01-21T07:00:23.236Z,27.75
2019-01-21T07:03:13.646Z,29.10
2019-01-21T07:06:01.926Z,27.97
2019-01-21T07:08:47.442Z,29.92
2019-01-21T07:11:33.606Z,29.37
2019-01-21T07:14:39.134Z,28.55
2019-01-21T07:17:20.476Z,28.27
2019-01-21T07:19:54.052Z,29.85
2019-01-21T07:22:44.635Z,29.23
2019-01-21T07:25:32.075Z,28.60
2019-01-21T07:28:19.140Z,28.57
2019-01-21T07:31:09.033Z,30.72
2019-01-21T07:33:59.281Z,28.83
2019-01-21T07:36:35.225Z,28.70
2019-01-21T07:39:25.194Z,28.83
2019-01-21T07:42:11.703Z,29.40
2019-01-21T07:44:57.389Z,30.72
2019-01-21T07:48:02.843Z,30.40
2019-01-21T07:50:38.272Z,29.75
2019-01-21T07:53:28.681Z,30.80
2019-01-21T07:56:24.950Z,29.65
2019-01-21T07:59:11.901Z,30.37
2019-01-21T08:02:11.335Z,30.70
2019-01-21T08:05:13.524Z,29.60
2019-01-21T08:07:45.994Z,29.55
2019-01-21T08:10:31.712Z,29.42
2019-01-21T08:13:03.481Z,29.60
2019-01-21T08:15:50.855Z,29.42
2019-01-21T08:18:37.150Z,30.27
2019-01-21T08:21:18.870Z,29.30
2019-01-21T08:24:06.273Z,28.65
2019-01-21T08:26:40.813Z,28.38
2019-01-21T08:29:21.455Z,29.15
2019-01-21T08:32:15.542Z,28.63
2019-01-21T08:34:53.094Z,29.27
2019-01-21T08:37:28.607Z,30.00
2019-01-21T08:40:27.732Z,29.42
2019-01-21T08:43:00.685Z,29.70
2019-01-21T08:46:03.165Z,28.50
2019-01-21T08:48:48.329Z,29.60
2019-01-21T08:51:27.761Z,29.07
2019-01-21T08:54:11.841Z,28.20
2019-01-21T08:57:02.514Z,28.90
2019-01-21T08:59:37.382Z,29.70
2019-01-21T09:02:23.805Z,28.50
2019-01-21T09:05:07.002Z,28.40
2019-01-21T09:07:54.080Z,33.95
2019-01-21T09:10:28.108Z,30.23
2019-01-21T09:13:14.101Z,29.37
2019-01-21T09:15:48.718Z,28.30
2019-01-21T09:18:54.788Z,28.90
2019-01-21T09:21:47.679Z,30.52
2019-01-21T09:24:29.397Z,27.73
2019-01-21T09:27:28.360Z,29.02
2019-01-21T09:30:10.016Z,28.55
2019-01-21T09:32:44.633Z,27.32
2019-01-21T09:35:31.717Z,28.77
2019-01-21T09:38:34.546Z,28.40
2019-01-21T09:41:24.392Z,28.87
2019-01-21T09:43:55.887Z,31.63
2019-01-21T09:46:49.868Z,29.20
2019-01-21T09:49:17.320Z,29.90
2019-01-21T09:51:47.526Z,29.70
2019-01-21T09:54:15.480Z,30.23
2019-01-21T09:56:43.797Z,30.68
2019-01-21T09:59:11.781Z,28.20
2019-01-21T10:01:40.041Z,29.85
2019-01-21T10:04:08.513Z,28.20
2019-01-21T10:06:42.029Z,27.90
2019-01-21T10:09:19.095Z,27.60
2019-01-21T10:12:06.419Z,27.70
2019-01-21T10:15:05.416Z,27.13
2019-01-21T10:17:51.338Z,26.80
2019-01-21T10:20:38.437Z,26.70
2019-01-21T10:23:44.695Z,26.35
2019-01-21T10:26:47.581Z,27.10
2019-01-21T10:29:47.000Z,27.65
2019-01-21T10:32:43.461Z,27.05
2019-01-21T10:35:30.812Z,26.80
2019-01-21T10:38:17.868Z,25.80
2019-01-21T10:41:03.847Z,25.37
2019-01-21T10:44:03.302Z,24.80
2019-01-21T10:47:05.517Z,25.65
2019-01-21T10:49:49.932Z,25.55
2019-01-21T10:52:52.372Z,26.55
2019-01-21T10:55:39.461Z,26.33
2019-01-21T10:58:25.581Z,26.68
2019-01-21T11:01:20.094Z,26.10
2019-01-21T11:04:16.816Z,26.97
2019-01-21T11:06:50.021Z,26.97
2019-01-21T11:09:26.694Z,28.67
2019-01-21T11:12:03.262Z,28.12
2019-01-21T11:14:36.268Z,27.42
2019-01-21T11:17:23.365Z,26.77
2019-01-21T11:19:55.835Z,26.80
2019-01-21T11:22:37.332Z,27.20
2019-01-21T11:25:30.697Z,25.55
2019-01-21T11:28:06.952Z,25.60
2019-01-21T11:30:57.134Z,26.00
2019-01-21T11:33:44.183Z,25.97
2019-01-21T11:36:30.555Z,24.12
2019-01-21T11:39:13.016Z,25.08
2019-01-21T11:42:06.300Z,26.50
2019-01-21T11:44:41.185Z,24.70
2019-01-21T11:47:21.817Z,24.82
2019-01-21T11:50:12.184Z,25.15
2019-01-21T11:53:05.859Z,25.23
2019-01-21T11:55:59.236Z,25.12
2019-01-21T11:58:35.127Z,24.60
2019-01-21T12:01:07.084Z,24.90
2019-01-21T12:03:42.335Z,23.83
2019-01-21T12:06:16.371Z,23.15
2019-01-21T12:09:04.356Z,24.32
2019-01-21T12:11:52.956Z,24.50
2019-01-21T12:14:27.549Z,25.73
2019-01-21T12:17:27.051Z,25.32
2019-01-21T12:20:17.178Z,26.70
2019-01-21T12:23:03.477Z,27.27
2019-01-21T12:25:35.903Z,27.10
2019-01-21T12:28:35.015Z,26.70
2019-01-21T12:31:31.777Z,25.32
2019-01-21T12:34:12.957Z,24.60
2019-01-21T12:36:50.598Z,24.30
2019-01-21T12:39:24.921Z,25.43
2019-01-21T12:42:02.786Z,23.98
2019-01-21T12:45:02.229Z,25.85
2019-01-21T12:47:34.832Z,23.80
2019-01-21T12:50:24.002Z,25.35
2019-01-21T12:53:00.522Z,26.70
2019-01-21T12:55:51.605Z,25.03
2019-01-21T12:58:48.371Z,25.00
2019-01-21T13:01:45.198Z,25.40
2019-01-21T13:04:32.585Z,26.30
2019-01-21T13:07:29.264Z,24.67
2019-01-21T13:10:14.971Z,24.23
2019-01-21T13:13:11.145Z,23.90
2019-01-21T13:15:47.073Z,24.95
2019-01-21T13:18:43.177Z,23.80
2019-01-21T13:21:42.352Z,23.80
2019-01-21T13:24:17.531Z,23.50
2019-01-21T13:27:05.794Z,21.90
2019-01-21T13:29:43.448Z,24.07
2019-01-21T13:32:40.094Z,23.12
2019-01-21T13:35:27.125Z,23.00
2019-01-21T13:38:20.179Z,22.80
2019-01-21T13:41:13.333Z,22.35
2019-01-21T13:43:55.373Z,23.35
2019-01-21T13:46:51.499Z,22.90
2019-01-21T13:49:53.995Z,22.45
2019-01-21T13:52:39.796Z,25.20
2019-01-21T13:55:13.427Z,23.47
2019-01-21T13:58:12.624Z,24.10
2019-01-21T14:01:02.243Z,24.27
2019-01-21T14:03:47.984Z,24.05
2019-01-21T14:06:23.740Z,24.02
2019-01-21T14:09:10.840Z,25.55
2019-01-21T14:12:00.855Z,25.27
2019-01-21T14:14:37.478Z,24.98
2019-01-21T14:17:14.013Z,27.02
2019-01-21T14:20:06.879Z,25.30
2019-01-21T14:23:06.097Z,25.02
2019-01-21T14:25:59.619Z,25.17
2019-01-21T14:28:41.613Z,23.25
2019-01-21T14:31:27.605Z,25.45
2019-01-21T14:33:59.282Z,23.10
2019-01-21T14:36:38.864Z,23.30
2019-01-21T14:39:41.228Z,22.05
2019-01-21T14:42:40.788Z,24.37
2019-01-21T14:45:37.026Z,22.43
2019-01-21T14:48:14.947Z,24.40
2019-01-21T14:51:17.508Z,22.17
2019-01-21T14:53:51.938Z,23.02
2019-01-21T14:56:30.338Z,21.90
2019-01-21T14:59:08.942Z,22.05
2019-01-21T15:01:57.616Z,22.42
2019-01-21T15:04:44.751Z,24.52
2019-01-21T15:07:28.836Z,22.85
2019-01-21T15:10:15.941Z,23.32
2019-01-21T15:13:12.406Z,22.50
2019-01-21T15:15:47.501Z,23.00
2019-01-21T15:18:18.464Z,23.62
2019-01-21T15:21:08.418Z,23.40
2019-01-21T15:23:43.311Z,22.80
2019-01-21T15:26:29.703Z,23.42
2019-01-21T15:29:23.122Z,23.40
2019-01-21T15:31:57.611Z,23.05
2019-01-21T15:34:35.466Z,24.00
2019-01-21T15:37:25.550Z,23.27
2019-01-21T15:40:01.563Z,21.02
2019-01-21T15:42:41.550Z,22.48
2019-01-21T15:45:40.745Z,22.65
2019-01-21T15:48:24.911Z,23.17
2019-01-21T15:51:14.999Z,21.62
2019-01-21T15:54:08.120Z,22.40
2019-01-21T15:56:55.184Z,20.97
2019-01-21T15:59:35.956Z,22.42
2019-01-21T16:02:07.371Z,22.32
2019-01-21T16:05:00.822Z,21.62
2019-01-21T16:07:40.301Z,21.80
2019-01-21T16:10:26.095Z,21.48
2019-01-21T16:12:57.100Z,22.30
2019-01-21T16:15:50.512Z,21.90
2019-01-21T16:18:43.828Z,22.07
2019-01-21T16:21:30.333Z,21.95
2019-01-21T16:24:17.421Z,22.85
2019-01-21T16:26:58.642Z,21.90
2019-01-21T16:29:37.774Z,21.93
2019-01-21T16:32:13.811Z,29.12
2019-01-21T16:34:48.003Z,22.60
2019-01-21T16:37:29.254Z,22.60
2019-01-21T16:40:15.028Z,22.75
2019-01-21T16:42:43.481Z,21.68
2019-01-21T16:45:11.474Z,22.50
2019-01-21T16:47:39.752Z,22.80
2019-01-21T16:50:07.746Z,21.95
2019-01-21T16:52:36.923Z,21.85
2019-01-21T16:55:05.267Z,21.82
2019-01-21T16:57:33.253Z,21.82
2019-01-21T17:00:01.621Z,22.50
2019-01-21T17:02:29.873Z,22.32
2019-01-21T17:04:57.943Z,21.23
2019-01-21T17:07:26.188Z,22.27
2019-01-21T17:09:54.430Z,22.07
2019-01-21T17:12:22.688Z,22.10
2019-01-21T17:14:57.401Z,23.00
2019-01-21T17:17:20.615Z,22.73
2019-01-21T17:19:48.573Z,23.63
2019-01-21T17:22:16.568Z,23.30
2019-01-21T17:24:44.532Z,22.63
2019-01-21T17:27:12.836Z,22.90
2019-01-21T17:29:40.830Z,24.12
2019-01-21T17:32:08.766Z,24.40
2019-01-21T17:34:36.738Z,27.62
2019-01-21T17:37:05.069Z,24.02
2019-01-21T17:39:33.395Z,24.65
2019-01-21T17:42:01.931Z,26.47
2019-01-21T17:44:30.212Z,24.63
2019-01-21T17:46:58.889Z,25.70
2019-01-21T17:49:26.884Z,25.05
2019-01-21T17:51:55.260Z,23.65
2019-01-21T17:54:23.914Z,27.40
2019-01-21T17:56:52.509Z,23.98
2019-01-21T17:59:20.786Z,23.27
2019-01-21T18:01:48.762Z,23.10
2019-01-21T18:04:17.128Z,23.85
2019-01-21T18:06:45.120Z,24.98
2019-01-21T18:09:13.377Z,24.18
2019-01-21T18:11:41.666Z,24.05
2019-01-21T18:14:09.643Z,25.40
2019-01-21T18:16:37.612Z,24.95
2019-01-21T18:19:05.651Z,25.10
2019-01-21T18:21:39.962Z,24.52
2019-01-21T18:24:03.278Z,24.80
2019-01-21T18:26:31.618Z,24.90
2019-01-21T18:28:59.908Z,24.73
2019-01-21T18:31:28.270Z,24.00
2019-01-21T18:33:56.237Z,26.93
2019-01-21T18:36:24.206Z,36.33
2019-01-21T18:38:52.759Z,27.32
2019-01-21T18:41:20.716Z,27.73
2019-01-21T18:43:49.366Z,25.10
2019-01-21T18:46:17.744Z,26.62
2019-01-21T18:48:45.704Z,24.82
2019-01-21T18:51:13.990Z,25.40
2019-01-21T18:53:42.010Z,23.98
2019-01-21T18:56:09.959Z,24.63
2019-01-21T18:58:38.271Z,24.43
2019-01-21T19:01:06.217Z,25.32
2019-01-21T19:03:34.459Z,25.10
2019-01-21T19:06:02.707Z,25.62
2019-01-21T19:08:31.002Z,26.23
2019-01-21T19:10:58.974Z,25.60
2019-01-21T19:13:27.551Z,25.72
2019-01-21T19:15:55.884Z,25.30
2019-01-21T19:18:23.857Z,26.20
2019-01-21T19:20:51.809Z,26.35
2019-01-21T19:23:19.786Z,26.65
2019-01-21T19:25:47.737Z,27.00
2019-01-21T19:28:15.722Z,27.82
2019-01-21T19:30:43.696Z,25.35
2019-01-21T19:33:12.239Z,26.27
2019-01-21T19:35:40.610Z,26.82
2019-01-21T19:38:08.571Z,26.95
2019-01-21T19:40:36.913Z,28.38
2019-01-21T19:43:05.248Z,27.55
2019-01-21T19:45:33.499Z,29.35
2019-01-21T19:48:02.206Z,28.30
2019-01-21T19:50:30.151Z,27.93
2019-01-21T19:52:58.450Z,30.00
2019-01-21T19:55:30.845Z,31.73
2019-01-21T19:57:59.134Z,29.30
2019-01-21T20:00:27.466Z,28.87
2019-01-21T20:02:55.463Z,28.52
2019-01-21T20:05:23.404Z,29.15
2019-01-21T20:07:51.693Z,27.87
2019-01-21T20:10:20.066Z,29.40
2019-01-21T20:12:48.112Z,28.70
2019-01-21T20:15:16.605Z,27.95
2019-01-21T20:17:44.818Z,28.85
2019-01-21T20:20:15.027Z,30.10
2019-01-21T20:22:43.280Z,29.82
2019-01-21T20:25:11.581Z,31.87
2019-01-21T20:27:39.853Z,30.43
2019-01-21T20:30:09.085Z,33.95
2019-01-21T20:32:37.036Z,33.63
2019-01-21T20:35:05.466Z,32.85
2019-01-21T20:37:33.795Z,33.77
2019-01-21T20:40:02.042Z,32.28
2019-01-21T20:42:30.332Z,32.03
2019-01-21T20:44:58.614Z,32.27
2019-01-21T20:47:26.598Z,32.70
2019-01-21T20:49:54.543Z,33.28
2019-01-21T20:52:22.825Z,32.78
2019-01-21T20:54:51.419Z,32.05
2019-01-21T20:57:19.398Z,31.60
2019-01-21T20:59:47.593Z,32.00
2019-01-21T21:02:15.602Z,33.42
2019-01-21T21:04:43.533Z,35.10
2019-01-21T21:07:11.763Z,34.35
2019-01-21T21:09:39.885Z,34.43
2019-01-21T21:12:08.227Z,35.07
2019-01-21T21:14:36.765Z,35.40
2019-01-21T21:17:04.778Z,35.23
2019-01-21T21:19:33.164Z,35.47
2019-01-21T21:22:01.138Z,38.83
2019-01-21T21:24:29.383Z,36.10
2019-01-21T21:26:58.000Z,34.35
2019-01-21T21:29:25.960Z,35.50
2019-01-21T21:31:54.634Z,35.33
2019-01-21T21:34:23.019Z,39.93
2019-01-21T21:36:51.578Z,37.67
2019-01-21T21:39:19.888Z,36.17
2019-01-21T21:41:47.879Z,34.65
2019-01-21T21:44:16.122Z,35.68
2019-01-21T21:46:44.698Z,38.85
2019-01-21T21:49:13.230Z,38.78
2019-01-21T21:51:41.583Z,39.35
2019-01-21T21:54:09.579Z,38.92
2019-01-21T21:56:37.588Z,36.42
2019-01-21T21:59:05.887Z,37.42
2019-01-21T22:01:34.477Z,38.25
2019-01-21T22:04:02.767Z,35.75
2019-01-21T22:06:31.347Z,38.70
2019-01-21T22:08:59.619Z,38.13
2019-01-21T22:11:27.573Z,37.58
2019-01-21T22:13:56.155Z,38.80
2019-01-21T22:16:24.143Z,37.45
2019-01-21T22:18:52.122Z,37.38
2019-01-21T22:21:20.676Z,39.38
2019-01-21T22:23:48.687Z,39.42
2019-01-21T22:26:17.027Z,40.90
2019-01-21T22:28:45.003Z,40.17
2019-01-21T22:31:12.988Z,39.03
2019-01-21T22:33:40.942Z,39.08
2019-01-21T22:36:09.210Z,38.55
2019-01-21T22:38:38.978Z,41.13
2019-01-21T22:41:07.221Z,40.60
2019-01-21T22:43:35.537Z,40.67
2019-01-21T22:46:03.984Z,41.50
2019-01-21T22:48:32.660Z,39.40
2019-01-21T22:51:01.808Z,40.98
2019-01-21T22:53:29.788Z,40.88
2019-01-21T22:55:57.751Z,41.53
2019-01-21T22:58:25.704Z,42.00
2019-01-21T23:01:19.009Z,42.43
2019-01-21T23:03:47.808Z,40.30
2019-01-21T23:06:15.902Z,40.03
2019-01-21T23:08:45.818Z,39.03
2019-01-21T23:11:13.877Z,39.13
2019-01-21T23:13:41.833Z,38.10
2019-01-21T23:16:10.129Z,39.67
2019-01-21T23:18:38.076Z,39.70
2019-01-21T23:21:06.421Z,38.85
2019-01-21T23:23:34.438Z,39.88
2019-01-21T23:26:02.415Z,39.50
2019-01-21T23:28:30.378Z,39.70
2019-01-21T23:30:58.966Z,40.08
2019-01-21T23:33:27.251Z,39.55
2019-01-21T23:35:55.831Z,38.50
2019-01-21T23:38:23.768Z,37.08
2019-01-21T23:40:51.725Z,37.33
2019-01-21T23:43:20.013Z,34.35
2019-01-21T23:45:48.374Z,37.33
2019-01-21T23:48:16.668Z,35.70
2019-01-21T23:50:44.974Z,36.58
2019-01-21T23:53:13.567Z,36.85
2019-01-21T23:55:41.824Z,36.68
2019-01-21T23:58:10.433Z,35.65
